Etusivu
METAR-TAF:

METAR-TAF

Lentoasemat :

Demopolis, Alabama, Yhdysvallat

Leveyspiiri: 32-27-50N, Pituuspiiri: 087-57-15W, korkeus merenpinnasta: 34 m

Tämänhetkinen sää

Tämä raportti tehtiin 20 minuuttia sitten, kello 00.15 UTC
tyyntä
Lämpötila 17°C
Kosteus 94%
Ilmanpaine 1009 hPa
Näkyvyys: 16.1 km
Pilvistä 600 ft:n korkeudessa

METAR: KDYA 260015Z AUTO 00000KT 10SM OVC006 17/16 A2979 RMK AO2 T01700160

Aika: 19:35 (00:35 UTC)


TAF: puuttuu

Säähavainnot ja -ennusteet yli 4000 lentoasemalta (METAR- ja TAF-raportit).

Käytössä olevat sääasemat on merkitty karttaan keltaisilla ja punaisilla pisteillä.

Aseta hiiri pisteen päälle nähdäksesi sääaseman nimen.

Klikkaa sitten nähdäksesi säähavainnot ja -ennusteet.

Kartan vaihtaminen: klikkaa mustalla rastilla varustettuja vihreitä pisteitä, niin voit zoomata sisään; viivalla varustettua vihreää pistettä, niin voit zoomata ulos tai vihreitä nuolia, niin pääset viereisille kartoille.


METAR-TAF: